createdAt,value
2023-04-15T00:02:21.362Z,14.43
2023-04-15T00:04:52.028Z,14.20
2023-04-15T00:07:24.958Z,11.80
2023-04-15T00:09:56.323Z,12.15
2023-04-15T00:12:25.631Z,11.80
2023-04-15T00:14:54.828Z,11.68
2023-04-15T00:17:26.224Z,11.52
2023-04-15T00:19:57.121Z,10.98
2023-04-15T00:22:26.801Z,10.20
2023-04-15T00:24:56.497Z,11.45
2023-04-15T00:27:29.747Z,10.75
2023-04-15T00:29:59.429Z,12.52
2023-04-15T00:32:29.440Z,12.07
2023-04-15T00:35:05.855Z,12.00
2023-04-15T00:37:35.315Z,11.30
2023-04-15T00:40:05.936Z,10.73
2023-04-15T00:42:37.002Z,10.70
2023-04-15T00:45:07.177Z,9.30
2023-04-15T00:47:37.355Z,9.88
2023-04-15T00:50:10.886Z,9.05
2023-04-15T00:52:40.962Z,8.18
2023-04-15T00:55:13.438Z,8.20
2023-04-15T00:57:42.846Z,8.90
2023-04-15T01:00:12.630Z,9.80
2023-04-15T01:02:46.631Z,8.63
2023-04-15T01:05:29.649Z,10.57
2023-04-15T01:08:19.723Z,8.45
2023-04-15T01:10:49.914Z,8.40
2023-04-15T01:13:19.267Z,8.35
2023-04-15T01:15:51.858Z,8.27
2023-04-15T01:18:21.134Z,8.80
2023-04-15T01:20:52.369Z,8.57
2023-04-15T01:23:23.169Z,8.88
2023-04-15T01:25:54.568Z,7.75
2023-04-15T01:28:23.845Z,7.88
2023-04-15T01:30:52.931Z,6.78
2023-04-15T01:33:22.205Z,8.30
2023-04-15T01:36:10.914Z,7.75
2023-04-15T01:38:40.207Z,8.48
2023-04-15T01:41:10.519Z,7.93
2023-04-15T01:43:41.424Z,7.28
2023-04-15T01:46:15.236Z,9.00
2023-04-15T01:48:45.919Z,10.65
2023-04-15T01:51:16.666Z,7.70
2023-04-15T01:53:46.957Z,7.82
2023-04-15T01:56:18.810Z,8.30
2023-04-15T02:01:20.959Z,8.63
2023-04-15T02:03:54.819Z,8.38
2023-04-15T02:06:28.452Z,8.88
2023-04-15T02:09:03.301Z,9.13
2023-04-15T02:11:36.195Z,9.52
2023-04-15T02:14:10.500Z,8.23
2023-04-15T02:16:43.583Z,8.55
2023-04-15T02:19:14.371Z,7.65
2023-04-15T02:21:45.130Z,9.90
2023-04-15T02:24:15.650Z,9.05
2023-04-15T02:26:47.780Z,7.78
2023-04-15T02:29:19.206Z,7.40
2023-04-15T02:31:49.678Z,7.93
2023-04-15T02:34:20.261Z,8.13
2023-04-15T02:36:58.187Z,8.23
2023-04-15T02:39:29.098Z,7.40
2023-04-15T02:42:01.256Z,8.70
2023-04-15T02:44:52.377Z,7.82
2023-04-15T02:47:23.874Z,9.18
2023-04-15T02:49:54.992Z,6.88
2023-04-15T02:52:26.422Z,7.47
2023-04-15T02:55:00.752Z,8.07
2023-04-15T02:57:35.070Z,7.72
2023-04-15T03:00:11.893Z,9.07
2023-04-15T03:02:47.664Z,9.60
2023-04-15T03:05:21.977Z,9.10
2023-04-15T03:07:55.686Z,8.07
2023-04-15T03:10:27.296Z,7.75
2023-04-15T03:12:59.289Z,7.95
2023-04-15T03:15:29.994Z,6.88
2023-04-15T03:18:03.614Z,6.30
2023-04-15T03:20:34.092Z,9.00
2023-04-15T03:23:06.545Z,8.20
2023-04-15T03:25:39.213Z,7.63
2023-04-15T03:28:12.473Z,6.80
2023-04-15T03:30:44.621Z,7.95
2023-04-15T03:33:15.365Z,7.65
2023-04-15T03:35:45.914Z,8.25
2023-04-15T03:38:24.128Z,7.75
2023-04-15T03:40:57.535Z,8.15
2023-04-15T03:43:29.388Z,7.32
2023-04-15T03:51:08.182Z,7.95
2023-04-15T03:53:39.006Z,8.05
2023-04-15T03:56:09.641Z,8.00
2023-04-15T03:58:44.475Z,8.27
2023-04-15T04:01:15.010Z,7.53
2023-04-15T04:03:47.133Z,7.68
2023-04-15T04:06:17.577Z,8.50
2023-04-15T04:08:47.970Z,8.63
2023-04-15T04:11:18.522Z,8.30
2023-04-15T04:13:50.399Z,8.38
2023-04-15T04:25:16.980Z,7.97
2023-04-15T04:28:45.057Z,11.52
2023-04-15T04:31:36.571Z,8.13
2023-04-15T04:34:09.940Z,7.80
2023-04-15T04:36:42.549Z,10.45
2023-04-15T04:39:12.845Z,6.68
2023-04-15T04:41:43.233Z,7.78
2023-04-15T04:44:13.881Z,8.52
2023-04-15T04:46:46.351Z,8.10
2023-04-15T04:49:17.420Z,7.95
2023-04-15T04:51:50.480Z,8.65
2023-04-15T04:54:21.374Z,7.78
2023-04-15T04:56:52.027Z,7.73
2023-04-15T04:59:22.632Z,8.93
2023-04-15T05:01:57.529Z,10.95
2023-04-15T05:04:28.456Z,9.88
2023-04-15T05:07:01.806Z,11.05
2023-04-15T05:09:43.532Z,10.27
2023-04-15T05:12:15.158Z,8.30
2023-04-15T05:14:46.833Z,8.10
2023-04-15T05:17:19.219Z,9.98
2023-04-15T05:19:50.096Z,7.70
2023-04-15T05:22:20.800Z,8.27
2023-04-15T05:24:51.299Z,7.88
2023-04-15T05:27:22.802Z,9.82
2023-04-15T05:29:53.498Z,8.45
2023-04-15T05:32:25.590Z,7.50
2023-04-15T05:34:56.291Z,8.50
2023-04-15T05:37:27.147Z,8.70
2023-04-15T05:39:58.086Z,8.38
2023-04-15T05:42:28.946Z,8.45
2023-04-15T05:45:00.002Z,8.00
2023-04-15T05:47:32.991Z,8.07
2023-04-15T05:50:04.151Z,8.13
2023-04-15T05:52:34.895Z,10.82
2023-04-15T05:55:06.227Z,10.65
2023-04-15T05:57:39.451Z,8.27
2023-04-15T06:00:13.246Z,7.70
2023-04-15T06:02:46.019Z,7.93
2023-04-15T06:05:16.552Z,10.05
2023-04-15T06:07:48.612Z,9.63
2023-04-15T06:10:31.441Z,9.10
2023-04-15T06:13:02.266Z,8.95
2023-04-15T06:15:36.843Z,9.32
2023-04-15T06:18:08.752Z,9.70
2023-04-15T06:20:39.060Z,11.50
2023-04-15T06:23:09.884Z,8.77
2023-04-15T06:25:42.515Z,11.45
2023-04-15T06:28:13.410Z,11.65
2023-04-15T06:30:44.079Z,11.90
2023-04-15T06:33:15.860Z,12.32
2023-04-15T06:35:49.822Z,13.40
2023-04-15T06:38:23.610Z,9.73
2023-04-15T06:40:54.526Z,9.60
2023-04-15T06:43:39.100Z,10.52
2023-04-15T06:46:09.643Z,11.38
2023-04-15T06:48:41.278Z,10.93
2023-04-15T06:51:14.380Z,14.82
2023-04-15T06:53:44.848Z,14.50
2023-04-15T06:56:15.470Z,11.50
2023-04-15T06:58:46.085Z,13.73
2023-04-15T07:01:16.995Z,12.90
2023-04-15T07:03:51.695Z,14.00
2023-04-15T07:06:33.002Z,12.85
2023-04-15T07:09:05.938Z,11.50
2023-04-15T07:11:39.401Z,12.45
2023-04-15T07:14:10.066Z,11.80
2023-04-15T07:19:23.570Z,12.40
2023-04-15T07:21:53.989Z,8.90
2023-04-15T07:24:26.795Z,9.77
2023-04-15T07:26:59.408Z,10.10
2023-04-15T07:29:31.607Z,9.00
2023-04-15T07:32:02.470Z,10.05
2023-04-15T07:34:37.599Z,10.23
2023-04-15T07:37:08.387Z,10.63
2023-04-15T07:39:42.940Z,12.32
2023-04-15T07:42:20.119Z,10.50
2023-04-15T07:44:51.082Z,11.43
2023-04-15T07:47:24.592Z,9.35
2023-04-15T07:50:00.306Z,8.98
2023-04-15T07:52:30.698Z,7.95
2023-04-15T07:55:03.984Z,11.15
2023-04-15T07:57:38.387Z,10.90
2023-04-15T08:00:09.635Z,10.95
2023-04-15T08:02:47.171Z,11.93
2023-04-15T08:05:19.091Z,11.52
2023-04-15T08:10:23.320Z,11.40
2023-04-15T08:12:57.890Z,10.43
2023-04-15T08:15:28.789Z,9.35
2023-04-15T08:18:00.884Z,8.10
2023-04-15T08:23:17.811Z,9.48
2023-04-15T08:25:48.570Z,10.02
2023-04-15T08:28:19.600Z,8.70
2023-04-15T08:30:49.906Z,9.35
2023-04-15T08:33:22.923Z,8.35
2023-04-15T08:35:54.053Z,9.10
2023-04-15T08:38:26.099Z,9.23
2023-04-15T08:43:37.444Z,8.63
2023-04-15T08:46:08.808Z,8.38
2023-04-15T08:48:41.587Z,9.00
2023-04-15T08:51:16.157Z,8.07
2023-04-15T08:53:49.844Z,7.80
2023-04-15T08:56:20.435Z,8.45
2023-04-15T08:58:51.253Z,8.52
2023-04-15T09:01:22.239Z,8.50
2023-04-15T09:03:54.610Z,8.02
2023-04-15T09:06:25.870Z,7.85
2023-04-15T09:09:01.280Z,8.57
2023-04-15T09:11:32.467Z,7.07
2023-04-15T09:14:03.864Z,8.52
2023-04-15T09:16:55.855Z,9.13
2023-04-15T09:19:27.260Z,9.95
2023-04-15T09:21:59.211Z,9.55
2023-04-15T09:24:38.729Z,7.75
2023-04-15T09:27:09.608Z,8.38
2023-04-15T09:29:43.612Z,8.03
2023-04-15T09:32:14.916Z,8.45
2023-04-15T09:34:46.188Z,9.43
2023-04-15T09:37:31.697Z,8.73
2023-04-15T09:40:04.627Z,9.77
2023-04-15T09:42:35.536Z,9.43
2023-04-15T09:45:15.878Z,9.07
2023-04-15T09:47:46.573Z,8.05
2023-04-15T09:50:17.170Z,9.43
2023-04-15T09:52:51.733Z,8.73
2023-04-15T09:55:28.894Z,8.07
2023-04-15T09:57:59.979Z,7.88
2023-04-15T10:00:31.801Z,8.68
2023-04-15T10:05:33.698Z,9.43
2023-04-15T10:08:05.499Z,9.55
2023-04-15T10:10:41.601Z,8.15
2023-04-15T10:13:12.382Z,8.60
2023-04-15T10:15:44.683Z,10.00
2023-04-15T10:18:25.600Z,8.40
2023-04-15T10:20:56.553Z,9.18
2023-04-15T10:23:27.501Z,7.82
2023-04-15T10:25:59.674Z,8.02
2023-04-15T10:28:32.582Z,20.38
2023-04-15T10:31:03.816Z,18.85
2023-04-15T10:33:36.448Z,9.55
2023-04-15T10:38:43.309Z,21.27
2023-04-15T10:41:17.809Z,8.52
2023-04-15T10:43:50.617Z,8.85
2023-04-15T10:46:21.979Z,8.93
2023-04-15T10:48:53.163Z,10.48
2023-04-15T10:51:32.179Z,10.53
2023-04-15T10:54:03.012Z,10.30
2023-04-15T10:56:35.331Z,9.03
2023-04-15T10:59:07.666Z,9.35
2023-04-15T11:01:54.402Z,8.32
2023-04-15T11:04:44.155Z,8.82
2023-04-15T11:07:15.144Z,8.32
2023-04-15T11:09:45.509Z,8.30
2023-04-15T11:12:17.242Z,8.77
2023-04-15T11:14:48.648Z,8.90
2023-04-15T11:17:29.742Z,9.23
2023-04-15T11:20:00.265Z,8.38
2023-04-15T11:22:31.597Z,9.20
2023-04-15T11:25:02.350Z,8.73
2023-04-15T11:27:35.485Z,9.38
2023-04-15T11:30:18.573Z,9.30
2023-04-15T11:32:49.831Z,7.65
2023-04-15T11:35:20.864Z,8.65
2023-04-15T11:37:53.114Z,9.13
2023-04-15T11:40:26.023Z,8.38
2023-04-15T11:45:29.420Z,8.73
2023-04-15T11:50:29.693Z,10.02
2023-04-15T11:52:59.292Z,9.13
2023-04-15T11:55:31.843Z,8.73
2023-04-15T11:58:16.401Z,9.32
2023-04-15T12:00:53.186Z,8.43
2023-04-15T12:03:27.982Z,8.25
2023-04-15T12:06:10.616Z,9.23
2023-04-15T12:08:54.505Z,9.35
2023-04-15T12:11:32.455Z,7.95
2023-04-15T12:14:07.226Z,9.27
2023-04-15T12:16:46.705Z,8.50
2023-04-15T12:19:22.798Z,9.40
2023-04-15T12:21:57.335Z,9.18
2023-04-15T12:24:27.839Z,8.35
2023-04-15T12:26:58.889Z,8.77
2023-04-15T12:29:29.639Z,8.32
2023-04-15T12:32:01.448Z,8.00
2023-04-15T12:34:31.593Z,16.55
2023-04-15T12:37:03.370Z,8.63
2023-04-15T12:39:33.942Z,8.57
2023-04-15T12:42:08.822Z,9.80
2023-04-15T12:44:39.277Z,7.53
2023-04-15T12:47:10.969Z,7.43
2023-04-15T12:49:41.128Z,8.35
2023-04-15T12:52:11.223Z,7.75
2023-04-15T12:54:41.741Z,8.15
2023-04-15T12:57:12.454Z,9.27
2023-04-15T12:59:44.699Z,7.50
2023-04-15T13:02:16.149Z,8.77
2023-04-15T13:04:45.870Z,8.43
2023-04-15T13:07:15.720Z,7.80
2023-04-15T13:12:16.918Z,8.18
2023-04-15T13:14:46.637Z,6.75
2023-04-15T13:17:21.541Z,7.30
2023-04-15T13:19:51.884Z,7.53
2023-04-15T13:22:21.712Z,6.90
2023-04-15T13:24:54.283Z,6.75
2023-04-15T13:27:26.666Z,6.35
2023-04-15T13:29:56.666Z,7.22
2023-04-15T13:32:28.084Z,7.20
2023-04-15T13:34:57.420Z,7.60
2023-04-15T13:37:28.789Z,6.25
2023-04-15T13:39:58.881Z,6.40
2023-04-15T13:42:28.585Z,7.57
2023-04-15T13:44:59.433Z,6.78
2023-04-15T13:47:31.529Z,7.47
2023-04-15T13:50:01.454Z,8.48
2023-04-15T13:52:33.047Z,9.45
2023-04-15T13:55:19.922Z,8.70
2023-04-15T13:57:54.283Z,7.75
2023-04-15T14:00:23.919Z,8.18
2023-04-15T14:02:55.662Z,8.43
2023-04-15T14:05:31.238Z,6.93
2023-04-15T14:08:03.082Z,6.72
2023-04-15T14:10:33.840Z,7.55
2023-04-15T14:13:09.250Z,6.60
2023-04-15T14:15:38.987Z,7.05
2023-04-15T14:18:13.093Z,7.72
2023-04-15T14:20:42.659Z,7.55
2023-04-15T14:23:13.221Z,7.95
2023-04-15T14:25:43.030Z,8.45
2023-04-15T14:28:18.889Z,7.75
2023-04-15T14:30:49.176Z,8.23
2023-04-15T14:33:20.151Z,7.95
2023-04-15T14:35:50.211Z,8.87
2023-04-15T14:38:22.764Z,7.65
2023-04-15T14:40:53.186Z,8.15
2023-04-15T14:43:22.615Z,7.25
2023-04-15T14:45:54.050Z,8.38
2023-04-15T14:48:25.323Z,8.45
2023-04-15T14:50:54.579Z,7.50
2023-04-15T14:53:23.775Z,7.93
2023-04-15T14:55:52.968Z,10.90
2023-04-15T14:58:22.422Z,9.45
2023-04-15T15:00:54.969Z,10.48
2023-04-15T15:03:31.848Z,9.75
2023-04-15T15:06:01.905Z,9.25
2023-04-15T15:08:31.378Z,9.30
2023-04-15T15:11:01.070Z,9.63
2023-04-15T15:13:31.584Z,10.05
2023-04-15T15:16:02.014Z,9.32
2023-04-15T15:18:41.588Z,8.18
2023-04-15T15:21:11.068Z,7.13
2023-04-15T15:23:41.004Z,7.75
2023-04-15T15:26:11.115Z,8.32
2023-04-15T15:28:47.977Z,39.97
2023-04-15T15:31:19.939Z,8.55
2023-04-15T15:33:56.119Z,9.38
2023-04-15T15:36:26.773Z,9.30
2023-04-15T15:38:56.083Z,8.45
2023-04-15T15:41:25.954Z,9.40
2023-04-15T15:43:55.830Z,8.85
2023-04-15T15:46:25.518Z,8.60
2023-04-15T15:48:56.534Z,9.07
2023-04-15T15:51:29.088Z,9.30
2023-04-15T15:53:58.621Z,9.45
2023-04-15T15:56:28.136Z,9.77
2023-04-15T15:59:02.181Z,10.30
2023-04-15T16:01:32.129Z,10.45
2023-04-15T16:04:03.322Z,8.77
2023-04-15T16:06:35.092Z,10.65
2023-04-15T16:09:05.511Z,9.23
2023-04-15T16:11:35.085Z,9.68
2023-04-15T16:14:05.017Z,11.13
2023-04-15T16:16:34.753Z,10.68
2023-04-15T16:19:06.656Z,11.10
2023-04-15T16:21:37.001Z,10.07
2023-04-15T16:24:09.048Z,9.88
2023-04-15T16:26:42.324Z,9.25
2023-04-15T16:29:12.253Z,8.73
2023-04-15T16:31:41.967Z,8.75
2023-04-15T16:34:13.670Z,9.07
2023-04-15T16:36:43.050Z,8.38
2023-04-15T16:39:12.224Z,7.90
2023-04-15T16:41:44.456Z,9.00
2023-04-15T16:44:14.321Z,9.43
2023-04-15T16:46:46.006Z,9.25
2023-04-15T16:49:17.404Z,8.95
2023-04-15T16:51:46.703Z,8.30
2023-04-15T16:54:17.856Z,9.02
2023-04-15T16:56:47.198Z,9.23
2023-04-15T16:59:22.139Z,8.13
2023-04-15T17:01:55.961Z,8.32
2023-04-15T17:04:30.133Z,8.38
2023-04-15T17:06:59.456Z,7.55
2023-04-15T17:09:30.623Z,6.47
2023-04-15T17:12:00.184Z,7.40
2023-04-15T17:14:30.030Z,8.38
2023-04-15T17:17:00.484Z,8.10
2023-04-15T17:19:32.886Z,7.93
2023-04-15T17:22:08.975Z,9.48
2023-04-15T17:24:38.816Z,8.70
2023-04-15T17:27:14.195Z,10.05
2023-04-15T17:29:45.376Z,10.75
2023-04-15T17:32:35.561Z,11.00
2023-04-15T17:35:26.819Z,11.95
2023-04-15T17:38:19.383Z,11.13
2023-04-15T17:43:57.943Z,9.15
2023-04-15T17:46:47.345Z,9.85
2023-04-15T17:49:37.975Z,9.55
2023-04-15T17:52:29.070Z,9.80
2023-04-15T17:55:18.653Z,11.68
2023-04-15T17:58:09.602Z,11.45
2023-04-15T18:00:59.185Z,10.98
2023-04-15T18:03:48.939Z,11.55
2023-04-15T18:06:39.844Z,11.13
2023-04-15T18:09:30.474Z,11.80
2023-04-15T18:12:19.834Z,12.20
2023-04-15T18:15:10.379Z,11.98
2023-04-15T18:17:59.554Z,10.68
2023-04-15T18:20:32.336Z,11.23
2023-04-15T18:23:05.562Z,12.40
2023-04-15T18:25:38.694Z,12.02
2023-04-15T18:28:09.381Z,11.70
2023-04-15T18:30:38.677Z,13.93
2023-04-15T18:33:10.980Z,18.30
2023-04-15T18:35:42.967Z,13.43
2023-04-15T18:38:23.584Z,12.82
2023-04-15T18:40:54.755Z,13.57
2023-04-15T18:43:24.433Z,11.93
2023-04-15T18:45:55.080Z,11.93
2023-04-15T18:48:24.418Z,14.35
2023-04-15T18:50:58.436Z,13.68
2023-04-15T18:53:31.293Z,13.43
2023-04-15T18:56:03.359Z,14.70
2023-04-15T18:59:19.417Z,13.23
2023-04-15T19:01:27.577Z,14.77
2023-04-15T19:03:56.678Z,13.20
2023-04-15T19:06:27.307Z,13.73
2023-04-15T19:08:58.780Z,13.18
2023-04-15T19:11:29.260Z,13.75
2023-04-15T19:14:00.453Z,13.80
2023-04-15T19:16:29.908Z,13.60
2023-04-15T19:18:59.645Z,13.75
2023-04-15T19:21:30.366Z,13.52
2023-04-15T19:23:59.744Z,17.45
2023-04-15T19:26:30.498Z,19.08
2023-04-15T19:29:00.021Z,37.30
2023-04-15T19:31:29.281Z,28.48
2023-04-15T19:33:59.081Z,26.80
2023-04-15T19:36:29.684Z,28.45
2023-04-15T19:38:59.043Z,31.17
2023-04-15T19:41:28.477Z,31.40
2023-04-15T19:43:59.198Z,25.05
2023-04-15T19:46:30.624Z,21.55
2023-04-15T19:49:00.732Z,19.60
2023-04-15T19:51:32.752Z,20.58
2023-04-15T19:54:02.751Z,19.40
2023-04-15T19:56:34.382Z,22.23
2023-04-15T19:59:05.843Z,22.58
2023-04-15T20:01:35.557Z,18.87
2023-04-15T20:04:05.426Z,18.10
2023-04-15T20:06:40.067Z,18.23
2023-04-15T20:09:13.379Z,20.67
2023-04-15T20:12:46.965Z,21.75
2023-04-15T20:14:33.653Z,22.40
2023-04-15T20:17:03.154Z,21.33
2023-04-15T20:19:34.988Z,21.35
2023-04-15T20:22:05.234Z,20.80
2023-04-15T20:24:38.059Z,18.63
2023-04-15T20:27:09.323Z,20.25
2023-04-15T20:29:40.155Z,21.40
2023-04-15T20:32:11.658Z,19.67
2023-04-15T20:34:43.077Z,20.58
2023-04-15T20:37:15.714Z,21.55
2023-04-15T20:39:45.319Z,21.33
2023-04-15T20:42:14.971Z,22.42
2023-04-15T20:44:45.732Z,21.45
2023-04-15T20:47:15.520Z,18.85
2023-04-15T20:49:44.737Z,19.90
2023-04-15T20:52:13.907Z,23.13
2023-04-15T20:54:42.930Z,20.90
2023-04-15T20:57:12.037Z,21.38
2023-04-15T20:59:45.881Z,26.00
2023-04-15T21:02:17.072Z,27.00
2023-04-15T21:04:47.381Z,24.88
2023-04-15T21:07:19.343Z,18.90
2023-04-15T21:09:49.439Z,18.95
2023-04-15T21:12:19.048Z,18.48
2023-04-15T21:14:48.345Z,21.38
2023-04-15T21:17:19.275Z,17.48
2023-04-15T21:19:48.888Z,17.27
2023-04-15T21:22:18.478Z,17.27
2023-04-15T21:24:47.893Z,19.42
2023-04-15T21:27:16.970Z,21.60
2023-04-15T21:29:46.228Z,17.63
2023-04-15T21:32:15.852Z,16.77
2023-04-15T21:34:46.549Z,15.95
2023-04-15T21:37:15.980Z,15.90
2023-04-15T21:39:47.873Z,13.88
2023-04-15T21:42:20.039Z,16.05
2023-04-15T21:44:49.098Z,16.92
2023-04-15T21:47:18.568Z,15.25
2023-04-15T21:49:49.692Z,15.77
2023-04-15T21:52:18.879Z,15.32
2023-04-15T21:54:48.021Z,14.45
2023-04-15T21:57:34.891Z,17.35
2023-04-15T22:00:06.364Z,16.33
2023-04-15T22:02:38.760Z,15.50
2023-04-15T22:05:09.746Z,14.98
2023-04-15T22:07:39.498Z,14.45
2023-04-15T22:10:09.056Z,13.25
2023-04-15T22:12:38.570Z,13.60
2023-04-15T22:15:11.445Z,13.45
2023-04-15T22:17:41.989Z,13.98
2023-04-15T22:20:13.437Z,13.85
2023-04-15T22:22:44.256Z,15.27
2023-04-15T22:25:19.242Z,14.20
2023-04-15T22:27:48.211Z,12.07
2023-04-15T22:30:17.494Z,14.52
2023-04-15T22:32:47.732Z,15.88
2023-04-15T22:35:23.762Z,14.38
2023-04-15T22:37:55.115Z,15.25
2023-04-15T22:40:24.149Z,13.75
2023-04-15T22:42:53.408Z,14.90
2023-04-15T22:45:23.249Z,13.95
2023-04-15T22:47:55.905Z,14.85
2023-04-15T22:50:26.441Z,13.15
2023-04-15T22:52:56.170Z,14.38
2023-04-15T22:55:25.435Z,15.30
2023-04-15T22:57:55.239Z,13.40
2023-04-15T23:00:32.016Z,14.82
2023-04-15T23:03:02.851Z,13.07
2023-04-15T23:05:33.759Z,13.05
2023-04-15T23:08:03.867Z,14.13
2023-04-15T23:10:33.411Z,12.77
2023-04-15T23:13:02.603Z,14.38
2023-04-15T23:15:32.502Z,13.45
2023-04-15T23:18:02.252Z,13.90
2023-04-15T23:20:33.356Z,14.25
2023-04-15T23:23:03.045Z,13.32
2023-04-15T23:25:32.160Z,12.52
2023-04-15T23:28:01.607Z,12.63
2023-04-15T23:30:30.941Z,14.38
2023-04-15T23:33:02.498Z,12.57
2023-04-15T23:35:32.963Z,12.40
2023-04-15T23:38:01.943Z,13.75
2023-04-15T23:40:31.536Z,13.20
2023-04-15T23:43:03.709Z,14.63
2023-04-15T23:45:32.828Z,11.20
2023-04-15T23:48:02.321Z,12.70
2023-04-15T23:50:33.207Z,12.77
2023-04-15T23:53:03.281Z,12.63
2023-04-15T23:55:32.990Z,12.18
2023-04-15T23:58:02.419Z,11.35
